Time;durP1;ratioP1;P1;durP2;ratioP2;P2;SDS_P1;SDS_P2;PMS_P1;PMS_P2;Temp;Humidity;BMP_temperature;BMP_pressure;BME280_temperature;BME280_humidity;BME280_pressure;Samples;Min_cycle;Max_cycle;Signal;HPM_P1;HPM_P2
2022/10/22 00:01:31;;;;;;;13.15;3.60;;;;;;;;;;5049322;28;20075;-68
2022/10/22 00:03:56;;;;;;;11.70;4.65;;;;;;;;;;5044792;28;20049;-69
2022/10/22 00:06:22;;;;;;;7.55;4.28;;;;;;;;;;5046038;28;20033;-69
2022/10/22 00:08:47;;;;;;;8.38;4.13;;;;;;;;;;5046656;28;20713;-69
2022/10/22 00:11:15;;;;;;;13.80;4.15;;;;;;;;;;5046410;28;20488;-70
2022/10/22 00:13:41;;;;;;;7.60;3.95;;;;;;;;;;5046020;28;20028;-68
2022/10/22 00:16:08;;;;;;;13.65;3.95;;;;;;;;;;5028887;28;20029;-68
2022/10/22 00:18:34;;;;;;;9.90;4.43;;;;;;;;;;5061709;28;20025;-68
2022/10/22 00:21:00;;;;;;;8.55;3.70;;;;;;;;;;5044492;28;20045;-68
2022/10/22 00:23:25;;;;;;;9.25;3.67;;;;;;;;;;5042364;28;20067;-68
2022/10/22 00:25:52;;;;;;;8.93;4.05;;;;;;;;;;5041607;28;20021;-70
2022/10/22 00:28:17;;;;;;;11.20;4.30;;;;;;;;;;5043953;28;20035;-70
2022/10/22 00:30:42;;;;;;;11.85;4.00;;;;;;;;;;5041274;28;20044;-69
2022/10/22 00:33:08;;;;;;;9.85;3.70;;;;;;;;;;5039104;28;20122;-68
2022/10/22 00:35:33;;;;;;;6.63;3.50;;;;;;;;;;5042001;28;20476;-67
2022/10/22 00:37:58;;;;;;;12.82;3.95;;;;;;;;;;5041410;28;20040;-69
2022/10/22 00:40:24;;;;;;;5.40;3.83;;;;;;;;;;5046028;28;20037;-69
2022/10/22 00:42:50;;;;;;;7.75;3.80;;;;;;;;;;5043607;28;20024;-68
2022/10/22 00:45:19;;;;;;;10.18;4.03;;;;;;;;;;5037129;28;20042;-68
2022/10/22 00:47:51;;;;;;;8.35;3.60;;;;;;;;;;5058978;28;20043;-69
2022/10/22 00:50:18;;;;;;;22.50;4.38;;;;;;;;;;5039274;28;20492;-67
2022/10/22 00:52:44;;;;;;;9.30;3.70;;;;;;;;;;5037610;28;20036;-67
2022/10/22 00:55:10;;;;;;;9.05;3.92;;;;;;;;;;5041864;28;20036;-68
2022/10/22 00:57:36;;;;;;;9.38;4.13;;;;;;;;;;5044519;28;20025;-68
2022/10/22 01:00:02;;;;;;;7.18;4.00;;;;;;;;;;5042943;28;20033;-70
2022/10/22 01:02:27;;;;;;;15.57;4.93;;;;;;;;;;5039014;28;20045;-70
2022/10/22 01:04:53;;;;;;;10.02;3.95;;;;;;;;;;5039156;28;20098;-70
2022/10/22 01:07:21;;;;;;;9.55;3.90;;;;;;;;;;5043196;28;20455;-71
2022/10/22 01:10:04;;;;;;;11.65;4.82;;;;;;;;;;5039087;28;20559;-70
2022/10/22 01:13:11;;;;;;;12.55;4.60;;;;;;;;;;5036167;28;20111;-69
2022/10/22 01:16:06;;;;;;;8.35;4.03;;;;;;;;;;5056259;28;20136;-70
2022/10/22 01:18:47;;;;;;;12.27;4.07;;;;;;;;;;5042486;28;20040;-70
2022/10/22 01:21:35;;;;;;;7.85;3.90;;;;;;;;;;5040612;28;20641;-70
2022/10/22 01:24:06;;;;;;;9.77;4.40;;;;;;;;;;5039170;28;20174;-70
2022/10/22 01:26:56;;;;;;;7.75;3.97;;;;;;;;;;5036965;28;20033;-70
2022/10/22 01:29:39;;;;;;;8.45;4.32;;;;;;;;;;5045343;28;20444;-70
2022/10/22 01:32:11;;;;;;;10.27;4.85;;;;;;;;;;5046757;28;20041;-70
2022/10/22 01:34:40;;;;;;;9.67;4.43;;;;;;;;;;5042638;28;20045;-70
2022/10/22 01:37:07;;;;;;;11.63;4.72;;;;;;;;;;5048200;28;20102;-69
2022/10/22 01:39:35;;;;;;;10.73;4.30;;;;;;;;;;5041664;28;20029;-70
2022/10/22 01:42:01;;;;;;;8.85;4.20;;;;;;;;;;5041225;28;20048;-71
2022/10/22 01:44:30;;;;;;;18.67;5.07;;;;;;;;;;5039549;28;20497;-70
2022/10/22 01:47:22;;;;;;;8.50;4.13;;;;;;;;;;5046383;28;20064;-70
2022/10/22 01:50:07;;;;;;;11.80;4.13;;;;;;;;;;5033037;28;20045;-70
2022/10/22 01:53:10;;;;;;;11.23;4.07;;;;;;;;;;5040647;28;20496;-69
2022/10/22 01:55:55;;;;;;;8.70;3.72;;;;;;;;;;5042463;28;20044;-70
2022/10/22 01:58:30;;;;;;;13.75;4.07;;;;;;;;;;5044983;28;22233;-70
2022/10/22 02:01:04;;;;;;;10.85;3.85;;;;;;;;;;5042646;28;20025;-70
2022/10/22 02:03:51;;;;;;;9.82;3.75;;;;;;;;;;5044267;28;20427;-70
2022/10/22 02:06:21;;;;;;;7.18;4.38;;;;;;;;;;5045611;28;20459;-69
2022/10/22 02:08:48;;;;;;;10.82;4.18;;;;;;;;;;5044433;28;20033;-70
2022/10/22 02:11:14;;;;;;;7.50;4.40;;;;;;;;;;5035655;28;20041;-70
2022/10/22 02:13:47;;;;;;;12.30;4.10;;;;;;;;;;5041353;28;20044;-70
2022/10/22 02:16:19;;;;;;;9.43;3.65;;;;;;;;;;5042745;28;20033;-70
2022/10/22 02:18:48;;;;;;;8.60;3.85;;;;;;;;;;5045121;28;20088;-70
2022/10/22 02:21:15;;;;;;;8.70;3.90;;;;;;;;;;5045370;28;20102;-70
2022/10/22 02:23:40;;;;;;;11.63;3.53;;;;;;;;;;5044553;28;20578;-70
2022/10/22 02:26:14;;;;;;;13.75;3.53;;;;;;;;;;5043056;28;20033;-70
2022/10/22 02:29:04;;;;;;;6.57;2.83;;;;;;;;;;5045359;28;20053;-70
2022/10/22 02:31:34;;;;;;;6.15;2.42;;;;;;;;;;5041371;28;20120;-70
2022/10/22 02:34:04;;;;;;;8.57;2.50;;;;;;;;;;5046745;28;20502;-69
2022/10/22 02:36:29;;;;;;;8.20;2.30;;;;;;;;;;5044531;28;20496;-69
2022/10/22 02:38:55;;;;;;;7.43;2.28;;;;;;;;;;5040486;28;20051;-69
2022/10/22 02:41:22;;;;;;;8.88;2.55;;;;;;;;;;5044695;28;20033;-70
2022/10/22 02:43:52;;;;;;;5.93;2.67;;;;;;;;;;5042863;28;20049;-70
2022/10/22 02:46:17;;;;;;;7.75;1.98;;;;;;;;;;5043502;28;20045;-69
2022/10/22 02:48:43;;;;;;;4.30;1.83;;;;;;;;;;5041990;28;20374;-71
2022/10/22 02:51:08;;;;;;;9.85;1.95;;;;;;;;;;5047671;28;20398;-70
2022/10/22 02:53:33;;;;;;;6.68;1.90;;;;;;;;;;5042726;28;20037;-69
2022/10/22 02:55:59;;;;;;;3.80;2.00;;;;;;;;;;5045675;28;20045;-70
2022/10/22 02:58:24;;;;;;;4.97;1.65;;;;;;;;;;5042716;28;20453;-70
2022/10/22 03:00:50;;;;;;;2.92;1.63;;;;;;;;;;5044140;28;20116;-69
2022/10/22 03:03:15;;;;;;;6.10;1.70;;;;;;;;;;5042193;28;20029;-69
2022/10/22 03:05:40;;;;;;;2.42;1.27;;;;;;;;;;5041079;28;20029;-70
2022/10/22 03:08:06;;;;;;;4.95;1.45;;;;;;;;;;5042302;28;20041;-71
2022/10/22 03:10:31;;;;;;;4.72;1.38;;;;;;;;;;5041255;28;20037;-70
2022/10/22 03:12:56;;;;;;;3.63;1.42;;;;;;;;;;5038335;28;20314;-70
2022/10/22 03:15:22;;;;;;;7.60;1.52;;;;;;;;;;5044877;28;20037;-70
2022/10/22 03:17:47;;;;;;;4.55;1.33;;;;;;;;;;5043754;28;20052;-70
2022/10/22 03:20:12;;;;;;;4.95;1.50;;;;;;;;;;5043998;28;20514;-70
2022/10/22 03:22:41;;;;;;;7.35;1.70;;;;;;;;;;5044517;28;20463;-69
2022/10/22 03:25:10;;;;;;;4.53;1.67;;;;;;;;;;5038743;28;20128;-70
2022/10/22 03:27:38;;;;;;;6.03;1.30;;;;;;;;;;5035607;28;20028;-69
2022/10/22 03:30:04;;;;;;;6.28;1.60;;;;;;;;;;5038465;28;20425;-69
2022/10/22 03:32:30;;;;;;;3.92;1.52;;;;;;;;;;5037900;28;20033;-69
2022/10/22 03:34:55;;;;;;;7.57;1.77;;;;;;;;;;5042556;28;20055;-69
2022/10/22 03:37:22;;;;;;;4.13;1.30;;;;;;;;;;5046344;28;20497;-69
2022/10/22 03:39:47;;;;;;;7.70;1.60;;;;;;;;;;5043527;28;20570;-70
2022/10/22 03:42:13;;;;;;;3.92;1.23;;;;;;;;;;5038941;28;20139;-70
2022/10/22 03:44:39;;;;;;;6.97;1.30;;;;;;;;;;5038912;28;20384;-69
2022/10/22 03:47:05;;;;;;;4.60;1.25;;;;;;;;;;5041618;28;20040;-69
2022/10/22 03:49:30;;;;;;;9.85;2.60;;;;;;;;;;5040611;28;20033;-68
2022/10/22 03:51:56;;;;;;;7.50;1.90;;;;;;;;;;5042920;28;20597;-70
2022/10/22 03:54:22;;;;;;;7.00;1.20;;;;;;;;;;5046802;28;20405;-71
2022/10/22 03:56:47;;;;;;;3.35;1.40;;;;;;;;;;5046672;28;20064;-71
2022/10/22 03:59:13;;;;;;;5.55;1.33;;;;;;;;;;5040307;28;20094;-70
2022/10/22 04:01:39;;;;;;;4.38;1.40;;;;;;;;;;5037100;28;20564;-78
2022/10/22 04:04:04;;;;;;;5.47;1.55;;;;;;;;;;5039203;28;20120;-70
2022/10/22 04:06:30;;;;;;;6.25;1.10;;;;;;;;;;5040538;28;20119;-69
2022/10/22 04:08:55;;;;;;;3.40;1.30;;;;;;;;;;5040142;28;20498;-69
2022/10/22 04:11:21;;;;;;;4.20;1.10;;;;;;;;;;5039915;28;20049;-69
2022/10/22 04:13:46;;;;;;;3.20;1.48;;;;;;;;;;5041105;28;20037;-69
2022/10/22 04:16:17;;;;;;;8.90;1.27;;;;;;;;;;5038989;28;20467;-70
2022/10/22 04:18:44;;;;;;;8.45;1.35;;;;;;;;;;5038300;28;20396;-71
2022/10/22 04:21:11;;;;;;;3.83;1.17;;;;;;;;;;5039300;28;20152;-70
2022/10/22 04:23:37;;;;;;;6.57;1.40;;;;;;;;;;5040872;28;20037;-70
2022/10/22 04:26:06;;;;;;;3.08;1.25;;;;;;;;;;5038739;28;21935;-70
2022/10/22 04:28:33;;;;;;;2.25;0.80;;;;;;;;;;5035611;28;20497;-70
2022/10/22 04:30:58;;;;;;;3.90;1.10;;;;;;;;;;5037466;28;20116;-70
2022/10/22 04:33:23;;;;;;;2.75;1.48;;;;;;;;;;5034000;28;20128;-70
2022/10/22 04:35:49;;;;;;;5.25;1.20;;;;;;;;;;5033301;28;20052;-69
2022/10/22 04:38:15;;;;;;;6.03;1.00;;;;;;;;;;5036459;28;20091;-69
2022/10/22 04:40:41;;;;;;;7.40;1.30;;;;;;;;;;5042731;28;20033;-69
2022/10/22 04:43:06;;;;;;;4.28;1.10;;;;;;;;;;5035374;28;20091;-69
2022/10/22 04:45:33;;;;;;;8.65;1.10;;;;;;;;;;5035964;28;20024;-71
2022/10/22 04:47:58;;;;;;;5.47;1.10;;;;;;;;;;5040507;28;20504;-71
2022/10/22 04:50:23;;;;;;;2.35;0.98;;;;;;;;;;5035663;28;20040;-70
2022/10/22 04:52:49;;;;;;;3.45;1.00;;;;;;;;;;5039166;28;20068;-71
2022/10/22 04:55:14;;;;;;;6.43;1.27;;;;;;;;;;5037462;28;20033;-70
2022/10/22 04:57:39;;;;;;;6.22;1.10;;;;;;;;;;5039919;28;20021;-70
2022/10/22 05:00:06;;;;;;;4.63;0.98;;;;;;;;;;5038962;28;20493;-69
2022/10/22 05:02:31;;;;;;;7.65;1.13;;;;;;;;;;5039777;28;20040;-72
2022/10/22 05:04:56;;;;;;;5.05;1.20;;;;;;;;;;5039036;28;20195;-70
2022/10/22 05:07:22;;;;;;;4.45;1.05;;;;;;;;;;5042121;28;20037;-70
2022/10/22 05:09:48;;;;;;;4.53;1.67;;;;;;;;;;5036036;28;20029;-70
2022/10/22 05:12:13;;;;;;;8.25;2.20;;;;;;;;;;5034492;28;20041;-69
2022/10/22 05:14:39;;;;;;;3.13;1.60;;;;;;;;;;5034544;28;20032;-69
2022/10/22 05:17:04;;;;;;;7.03;1.30;;;;;;;;;;5035013;28;20045;-69
2022/10/22 05:19:30;;;;;;;5.80;1.20;;;;;;;;;;5034950;28;20071;-71
2022/10/22 05:21:58;;;;;;;5.38;0.90;;;;;;;;;;5039998;28;20060;-68
2022/10/22 05:24:25;;;;;;;3.42;0.93;;;;;;;;;;5034037;28;20029;-70
2022/10/22 05:26:52;;;;;;;3.75;0.68;;;;;;;;;;5034866;28;20087;-70
2022/10/22 05:29:18;;;;;;;3.65;0.80;;;;;;;;;;5033491;28;20057;-70
2022/10/22 05:31:43;;;;;;;2.60;0.85;;;;;;;;;;5034815;28;20068;-69
2022/10/22 05:34:09;;;;;;;5.07;0.70;;;;;;;;;;5028019;28;21632;-70
2022/10/22 05:36:35;;;;;;;4.55;0.80;;;;;;;;;;5032476;28;20029;-70
2022/10/22 05:39:00;;;;;;;9.20;0.68;;;;;;;;;;5034319;28;20056;-70
2022/10/22 05:41:27;;;;;;;5.63;1.15;;;;;;;;;;5034170;28;20067;-70
2022/10/22 05:43:56;;;;;;;6.47;0.80;;;;;;;;;;5032771;28;20046;-70
2022/10/22 05:46:24;;;;;;;1.90;1.00;;;;;;;;;;5036117;28;20477;-70
2022/10/22 05:48:54;;;;;;;3.60;0.90;;;;;;;;;;5036180;28;20028;-69
2022/10/22 05:51:21;;;;;;;2.03;0.70;;;;;;;;;;5038282;28;20036;-69
2022/10/22 05:53:51;;;;;;;5.90;1.00;;;;;;;;;;5041406;28;20029;-71
2022/10/22 05:56:16;;;;;;;2.75;0.77;;;;;;;;;;5038833;28;20554;-70
2022/10/22 05:58:43;;;;;;;6.75;1.02;;;;;;;;;;5041452;28;20037;-71
2022/10/22 06:01:20;;;;;;;12.10;1.10;;;;;;;;;;5035360;28;20029;-70
2022/10/22 06:03:46;;;;;;;2.47;0.82;;;;;;;;;;5037467;28;20021;-72
2022/10/22 06:06:14;;;;;;;3.42;1.10;;;;;;;;;;5036195;28;20025;-69
2022/10/22 06:08:40;;;;;;;6.65;1.05;;;;;;;;;;5037415;28;20464;-69
2022/10/22 06:11:05;;;;;;;4.85;1.20;;;;;;;;;;5033678;28;20116;-71
2022/10/22 06:13:31;;;;;;;5.47;1.20;;;;;;;;;;5038157;28;20637;-71
2022/10/22 06:15:57;;;;;;;4.20;0.90;;;;;;;;;;5041397;28;20032;-70
2022/10/22 06:18:22;;;;;;;6.18;1.50;;;;;;;;;;5030132;28;20037;-69
2022/10/22 06:20:48;;;;;;;5.90;1.73;;;;;;;;;;5041355;28;20047;-70
2022/10/22 06:23:14;;;;;;;6.70;1.20;;;;;;;;;;5037342;28;20101;-70
2022/10/22 06:25:39;;;;;;;7.80;1.33;;;;;;;;;;5041534;28;20040;-69
2022/10/22 06:28:04;;;;;;;3.38;1.00;;;;;;;;;;5040345;28;20417;-70
2022/10/22 06:30:30;;;;;;;1.67;0.90;;;;;;;;;;5043530;28;20032;-70
2022/10/22 06:32:55;;;;;;;9.30;1.08;;;;;;;;;;5044540;28;20037;-68
2022/10/22 06:35:21;;;;;;;5.28;1.00;;;;;;;;;;5034097;28;20037;-70
2022/10/22 06:37:46;;;;;;;4.10;1.23;;;;;;;;;;5038040;28;20037;-70
2022/10/22 06:40:12;;;;;;;2.28;1.00;;;;;;;;;;5041750;28;20416;-70
2022/10/22 06:42:37;;;;;;;6.00;1.20;;;;;;;;;;5042688;28;20388;-69
2022/10/22 06:45:03;;;;;;;2.88;0.80;;;;;;;;;;5037908;28;20068;-71
2022/10/22 06:47:30;;;;;;;6.45;1.00;;;;;;;;;;5033012;28;20413;-70
2022/10/22 06:49:56;;;;;;;3.63;1.05;;;;;;;;;;5038361;28;20065;-70
2022/10/22 06:52:21;;;;;;;3.00;1.15;;;;;;;;;;5044696;28;20069;-69
2022/10/22 06:54:47;;;;;;;3.05;1.00;;;;;;;;;;5044819;28;20117;-69
2022/10/22 06:57:12;;;;;;;3.80;1.10;;;;;;;;;;5041427;28;20405;-68
2022/10/22 06:59:38;;;;;;;2.35;0.70;;;;;;;;;;5040089;28;20037;-71
2022/10/22 07:02:03;;;;;;;6.18;0.95;;;;;;;;;;5042183;28;20532;-70
2022/10/22 07:04:28;;;;;;;3.17;0.90;;;;;;;;;;5036607;28;20044;-70
2022/10/22 07:06:54;;;;;;;1.75;1.23;;;;;;;;;;5038850;28;20542;-69
2022/10/22 07:09:20;;;;;;;2.97;1.20;;;;;;;;;;5039529;28;20040;-69
2022/10/22 07:11:45;;;;;;;2.17;1.60;;;;;;;;;;5038952;28;20397;-70
2022/10/22 07:14:12;;;;;;;2.92;1.63;;;;;;;;;;5041910;28;20044;-70
2022/10/22 07:16:40;;;;;;;11.73;1.50;;;;;;;;;;5043306;28;20040;-70
2022/10/22 07:19:06;;;;;;;2.50;1.10;;;;;;;;;;5041852;28;20100;-70
2022/10/22 07:21:31;;;;;;;6.05;1.70;;;;;;;;;;5041442;28;20456;-69
2022/10/22 07:23:57;;;;;;;7.43;2.13;;;;;;;;;;5039369;28;20052;-70
2022/10/22 07:26:24;;;;;;;5.90;1.63;;;;;;;;;;5043743;28;20029;-70
2022/10/22 07:28:50;;;;;;;5.63;1.60;;;;;;;;;;5044675;28;20448;-70
2022/10/22 07:31:18;;;;;;;8.57;2.40;;;;;;;;;;5038833;28;20034;-69
2022/10/22 07:33:43;;;;;;;12.25;6.57;;;;;;;;;;5042735;28;20583;-70
2022/10/22 07:36:16;;;;;;;8.38;3.58;;;;;;;;;;5035966;28;20092;-70
2022/10/22 07:38:41;;;;;;;3.00;1.73;;;;;;;;;;5038774;28;20041;-70
2022/10/22 07:41:06;;;;;;;6.45;1.48;;;;;;;;;;5037768;28;20608;-70
2022/10/22 07:43:32;;;;;;;4.55;1.58;;;;;;;;;;5035746;28;21468;-69
2022/10/22 07:45:58;;;;;;;6.35;1.23;;;;;;;;;;5032674;28;20460;-70
2022/10/22 07:48:24;;;;;;;4.45;1.05;;;;;;;;;;5035219;28;20033;-69
2022/10/22 07:50:50;;;;;;;7.07;1.60;;;;;;;;;;5035744;28;20440;-70
2022/10/22 07:53:16;;;;;;;5.53;1.58;;;;;;;;;;5032298;28;20040;-70
2022/10/22 07:55:41;;;;;;;1.52;0.85;;;;;;;;;;5034918;28;20045;-70
2022/10/22 07:58:06;;;;;;;11.45;1.10;;;;;;;;;;5041327;28;20028;-69
2022/10/22 08:00:32;;;;;;;3.85;0.93;;;;;;;;;;5032574;28;20086;-72
2022/10/22 08:02:57;;;;;;;4.35;1.08;;;;;;;;;;5035408;28;20091;-70
2022/10/22 08:05:23;;;;;;;3.13;1.30;;;;;;;;;;5034002;28;20060;-71
2022/10/22 08:07:48;;;;;;;2.70;1.10;;;;;;;;;;5034556;28;20082;-70
2022/10/22 08:10:13;;;;;;;2.47;1.10;;;;;;;;;;5033355;28;20024;-70
2022/10/22 08:12:39;;;;;;;10.43;1.75;;;;;;;;;;5035232;28;20056;-71
2022/10/22 08:15:05;;;;;;;4.22;1.27;;;;;;;;;;5036125;28;20037;-70
2022/10/22 08:17:30;;;;;;;4.43;1.08;;;;;;;;;;5033553;28;20504;-69
2022/10/22 08:19:56;;;;;;;6.35;1.10;;;;;;;;;;5037052;28;20042;-70
2022/10/22 08:22:21;;;;;;;4.57;1.15;;;;;;;;;;5033119;28;20041;-70
2022/10/22 08:24:47;;;;;;;3.40;0.80;;;;;;;;;;5035453;28;20494;-70
2022/10/22 08:27:13;;;;;;;3.47;0.85;;;;;;;;;;5034100;28;20641;-69
2022/10/22 08:29:39;;;;;;;4.55;1.20;;;;;;;;;;5035902;28;20118;-70
2022/10/22 08:32:04;;;;;;;6.00;1.30;;;;;;;;;;5037607;28;20045;-69
2022/10/22 08:34:30;;;;;;;3.85;0.70;;;;;;;;;;5040726;28;20504;-71
2022/10/22 08:36:55;;;;;;;3.53;1.00;;;;;;;;;;5039042;28;20033;-70
2022/10/22 08:39:21;;;;;;;2.58;0.90;;;;;;;;;;5035369;28;20049;-69
2022/10/22 08:42:30;;;;;;;2.08;0.82;;;;;;;;;;5042496;28;20043;-69
2022/10/22 08:45:09;;;;;;;1.60;0.60;;;;;;;;;;5036184;28;20045;-69
2022/10/22 08:47:58;;;;;;;1.23;0.70;;;;;;;;;;5046353;28;20047;-70
2022/10/22 08:50:38;;;;;;;3.58;0.80;;;;;;;;;;5034514;28;20037;-70
2022/10/22 08:53:12;;;;;;;3.47;1.40;;;;;;;;;;5035929;28;20057;-69
2022/10/22 08:55:37;;;;;;;3.70;1.65;;;;;;;;;;5038892;28;20135;-69
2022/10/22 08:58:41;;;;;;;3.78;1.13;;;;;;;;;;5052756;28;20053;-70
2022/10/22 09:01:13;;;;;;;4.38;0.77;;;;;;;;;;5027086;28;20029;-71
2022/10/22 09:03:38;;;;;;;2.22;0.77;;;;;;;;;;5031901;28;20040;-70
2022/10/22 09:06:12;;;;;;;3.25;0.93;;;;;;;;;;5036275;28;20041;-69
2022/10/22 09:08:39;;;;;;;1.83;0.65;;;;;;;;;;5036437;28;20123;-71
2022/10/22 09:11:16;;;;;;;2.15;0.60;;;;;;;;;;5037527;28;20033;-71
2022/10/22 09:13:44;;;;;;;1.38;0.57;;;;;;;;;;5035258;28;20044;-70
2022/10/22 09:16:29;;;;;;;2.78;0.80;;;;;;;;;;5038113;28;20060;-70
2022/10/22 09:19:00;;;;;;;3.50;0.70;;;;;;;;;;5035702;28;20105;-69
2022/10/22 09:22:14;;;;;;;4.18;0.82;;;;;;;;;;5053305;28;20355;-71
2022/10/22 09:24:51;;;;;;;1.33;0.50;;;;;;;;;;5026429;28;20051;-69
2022/10/22 09:27:25;;;;;;;1.95;0.60;;;;;;;;;;5035473;28;20029;-71
2022/10/22 09:29:51;;;;;;;5.22;0.85;;;;;;;;;;5037767;28;20068;-70
2022/10/22 09:32:18;;;;;;;2.17;0.80;;;;;;;;;;5037587;28;20659;-72
2022/10/22 09:34:44;;;;;;;1.52;0.55;;;;;;;;;;5036992;28;20659;-70
2022/10/22 09:37:10;;;;;;;1.15;0.43;;;;;;;;;;5033266;28;20044;-69
2022/10/22 09:39:37;;;;;;;3.00;0.68;;;;;;;;;;5031784;28;20032;-70
2022/10/22 09:42:03;;;;;;;2.10;0.60;;;;;;;;;;5029941;28;20040;-71
2022/10/22 09:44:32;;;;;;;1.50;0.43;;;;;;;;;;5034194;28;20041;-71
2022/10/22 09:46:57;;;;;;;4.00;0.60;;;;;;;;;;5037181;28;20132;-72
2022/10/22 09:49:23;;;;;;;1.33;0.55;;;;;;;;;;5038170;28;20082;-71
2022/10/22 09:51:56;;;;;;;1.60;0.60;;;;;;;;;;5045256;28;20250;-70
2022/10/22 09:54:25;;;;;;;2.88;0.73;;;;;;;;;;5038662;28;20048;-69
2022/10/22 09:57:02;;;;;;;1.05;0.50;;;;;;;;;;5036930;28;20052;-69
2022/10/22 09:59:31;;;;;;;2.92;0.65;;;;;;;;;;5036443;28;20068;-69
2022/10/22 10:02:10;;;;;;;3.30;0.75;;;;;;;;;;5039405;28;20033;-68
2022/10/22 10:04:41;;;;;;;2.97;0.60;;;;;;;;;;5043058;28;20152;-70
2022/10/22 10:07:18;;;;;;;4.00;0.50;;;;;;;;;;5043595;28;20021;-70
2022/10/22 10:09:43;;;;;;;2.15;0.55;;;;;;;;;;5041234;28;20037;-71
2022/10/22 10:12:18;;;;;;;3.00;0.52;;;;;;;;;;5044865;28;20048;-70
2022/10/22 10:15:09;;;;;;;3.50;0.65;;;;;;;;;;5044690;28;20048;-69
2022/10/22 10:17:38;;;;;;;1.35;0.52;;;;;;;;;;5038516;28;20649;-70
2022/10/22 10:20:09;;;;;;;4.18;0.57;;;;;;;;;;5042044;28;20485;-70
2022/10/22 10:22:40;;;;;;;1.90;0.57;;;;;;;;;;5044574;28;20118;-69
2022/10/22 10:25:40;;;;;;;3.33;0.70;;;;;;;;;;5041053;28;20033;-69
2022/10/22 10:28:05;;;;;;;3.10;0.57;;;;;;;;;;5038964;28;20431;-69
2022/10/22 10:30:33;;;;;;;2.35;0.60;;;;;;;;;;5041959;28;20021;-69
2022/10/22 10:33:10;;;;;;;3.30;0.63;;;;;;;;;;5032656;28;20041;-70
2022/10/22 10:35:42;;;;;;;2.03;0.40;;;;;;;;;;5035882;28;20426;-69
2022/10/22 10:38:22;;;;;;;1.17;0.70;;;;;;;;;;5038308;28;20071;-69
2022/10/22 10:40:56;;;;;;;2.20;0.60;;;;;;;;;;5039958;28;20037;-70
2022/10/22 10:43:40;;;;;;;0.73;0.38;;;;;;;;;;5041179;28;20021;-69
2022/10/22 10:46:23;;;;;;;9.77;0.55;;;;;;;;;;5038586;28;20029;-69
2022/10/22 10:48:55;;;;;;;9.50;1.10;;;;;;;;;;5040951;28;20488;-69
2022/10/22 10:51:54;;;;;;;3.30;0.80;;;;;;;;;;5042321;28;20033;-70
2022/10/22 10:54:30;;;;;;;1.33;0.52;;;;;;;;;;5036790;28;20045;-73
2022/10/22 10:57:03;;;;;;;3.47;0.60;;;;;;;;;;5044926;28;20037;-70
2022/10/22 10:59:35;;;;;;;5.82;0.88;;;;;;;;;;5033289;28;20040;-70
2022/10/22 11:02:38;;;;;;;3.80;0.65;;;;;;;;;;5037409;28;20059;-70
2022/10/22 11:05:22;;;;;;;;;;;;;;;;;;5040905;28;20456;-67
2022/10/22 11:07:53;;;;;;;2.25;0.60;;;;;;;;;;5037801;28;20395;-70
2022/10/22 11:10:25;;;;;;;3.22;0.50;;;;;;;;;;5042852;28;20051;-70
2022/10/22 11:12:54;;;;;;;4.10;0.60;;;;;;;;;;5038871;28;20029;-70
2022/10/22 11:15:31;;;;;;;2.58;0.55;;;;;;;;;;5041107;28;20500;-70
2022/10/22 11:18:06;;;;;;;1.17;0.70;;;;;;;;;;5039712;28;20440;-70
2022/10/22 11:20:43;;;;;;;4.75;0.90;;;;;;;;;;5041862;28;20037;-70
2022/10/22 11:23:15;;;;;;;6.00;0.75;;;;;;;;;;5039142;28;20045;-71
2022/10/22 11:25:46;;;;;;;2.83;0.55;;;;;;;;;;5035491;28;20033;-70
2022/10/22 11:28:40;;;;;;;2.70;0.70;;;;;;;;;;5034629;28;20029;-71
2022/10/22 11:31:14;;;;;;;2.60;0.77;;;;;;;;;;5042289;28;20165;-70
2022/10/22 11:33:56;;;;;;;1.73;0.60;;;;;;;;;;5044211;28;20072;-70
2022/10/22 11:36:24;;;;;;;2.75;0.82;;;;;;;;;;5034853;28;20407;-70
2022/10/22 11:38:50;;;;;;;1.35;0.40;;;;;;;;;;5037977;28;20036;-72
2022/10/22 11:41:20;;;;;;;1.23;0.55;;;;;;;;;;5037820;28;20033;-71
2022/10/22 11:44:22;;;;;;;7.43;0.60;;;;;;;;;;5036138;28;20037;-71
2022/10/22 11:46:58;;;;;;;3.38;0.75;;;;;;;;;;5031357;28;20059;-70
2022/10/22 11:49:43;;;;;;;4.07;1.10;;;;;;;;;;5031851;28;20130;-71
2022/10/22 11:52:46;;;;;;;1.85;0.55;;;;;;;;;;5039178;28;20545;-70
2022/10/22 11:55:54;;;;;;;4.03;1.13;;;;;;;;;;5038197;28;20601;-69
2022/10/22 11:58:25;;;;;;;3.63;1.00;;;;;;;;;;5036516;28;20072;-71
2022/10/22 12:00:51;;;;;;;3.70;1.75;;;;;;;;;;5034026;28;20066;-70
2022/10/22 12:03:42;;;;;;;7.22;1.17;;;;;;;;;;5038216;28;20433;-70
2022/10/22 12:06:10;;;;;;;4.13;0.70;;;;;;;;;;5037621;28;20045;-70
2022/10/22 12:08:48;;;;;;;2.50;0.60;;;;;;;;;;5032439;28;20041;-71
2022/10/22 12:11:18;;;;;;;4.05;0.82;;;;;;;;;;5035447;28;20029;-70
2022/10/22 12:14:33;;;;;;;2.38;0.80;;;;;;;;;;5027407;28;20702;-72
2022/10/22 12:17:15;;;;;;;1.58;0.57;;;;;;;;;;5040097;28;20048;-69
2022/10/22 12:19:50;;;;;;;3.72;0.80;;;;;;;;;;5031638;28;20409;-71
2022/10/22 12:22:23;;;;;;;4.20;1.17;;;;;;;;;;5035212;28;20048;-68
2022/10/22 12:24:52;;;;;;;3.97;0.85;;;;;;;;;;5034265;28;20029;-71
2022/10/22 12:27:24;;;;;;;6.38;1.20;;;;;;;;;;5034457;28;20045;-71
2022/10/22 12:29:55;;;;;;;3.40;0.77;;;;;;;;;;5039434;28;20405;-71
2022/10/22 12:32:21;;;;;;;6.60;1.40;;;;;;;;;;5041607;28;20448;-71
2022/10/22 12:34:48;;;;;;;6.50;0.80;;;;;;;;;;5037275;28;20090;-69
2022/10/22 12:37:15;;;;;;;6.78;1.40;;;;;;;;;;5039970;28;20435;-71
2022/10/22 12:39:40;;;;;;;2.35;0.68;;;;;;;;;;5041865;28;20025;-71
2022/10/22 12:42:11;;;;;;;4.57;0.93;;;;;;;;;;5040204;28;20044;-71
2022/10/22 12:44:36;;;;;;;7.88;1.55;;;;;;;;;;5041818;28;20452;-71
2022/10/22 12:47:02;;;;;;;7.88;1.30;;;;;;;;;;5045101;28;20118;-69
2022/10/22 12:49:48;;;;;;;2.95;0.65;;;;;;;;;;5042935;28;20463;-71
2022/10/22 12:52:18;;;;;;;3.08;0.90;;;;;;;;;;5035409;28;20062;-70
2022/10/22 12:54:48;;;;;;;5.72;1.10;;;;;;;;;;5044886;28;20047;-70
2022/10/22 12:57:17;;;;;;;7.43;1.27;;;;;;;;;;5040268;28;20037;-70
2022/10/22 12:59:45;;;;;;;6.47;0.90;;;;;;;;;;5033928;28;20044;-70
2022/10/22 13:02:26;;;;;;;4.45;1.00;;;;;;;;;;5033079;28;20098;-69
2022/10/22 13:05:26;;;;;;;3.75;1.13;;;;;;;;;;5034277;28;20059;-71
2022/10/22 13:08:24;;;;;;;10.38;1.33;;;;;;;;;;5037058;28;20053;-70
2022/10/22 13:10:52;;;;;;;4.63;0.90;;;;;;;;;;5033859;28;20575;-70
2022/10/22 13:13:49;;;;;;;6.05;1.38;;;;;;;;;;5037397;28;20068;-71
2022/10/22 13:16:23;;;;;;;3.55;1.13;;;;;;;;;;5017450;28;22024;-71
2022/10/22 13:18:50;;;;;;;6.22;1.02;;;;;;;;;;5041479;28;20021;-69
2022/10/22 13:21:32;;;;;;;4.70;0.73;;;;;;;;;;5040914;28;20063;-70
2022/10/22 13:23:59;;;;;;;;;;;;;;;;;;5043786;28;20037;-68
2022/10/22 13:26:36;;;;;;;4.75;0.90;;;;;;;;;;5041245;28;19974;-70
2022/10/22 13:29:09;;;;;;;4.75;1.13;;;;;;;;;;5037871;28;20045;-70
2022/10/22 13:31:36;;;;;;;5.50;1.00;;;;;;;;;;5041403;28;20432;-70
2022/10/22 13:34:08;;;;;;;2.03;0.73;;;;;;;;;;5038380;28;20045;-69
2022/10/22 13:36:34;;;;;;;3.60;0.90;;;;;;;;;;5041174;28;20024;-69
2022/10/22 13:39:00;;;;;;;4.75;1.00;;;;;;;;;;5033926;28;20600;-71
2022/10/22 13:41:29;;;;;;;4.22;0.95;;;;;;;;;;5036879;28;20087;-69
2022/10/22 13:43:55;;;;;;;5.78;0.98;;;;;;;;;;5038923;28;21260;-70
2022/10/22 13:46:22;;;;;;;4.55;1.05;;;;;;;;;;5040691;28;20017;-70
2022/10/22 13:48:49;;;;;;;6.15;0.90;;;;;;;;;;5040665;28;20606;-70
2022/10/22 13:51:21;;;;;;;5.43;1.40;;;;;;;;;;5038034;28;20036;-71
2022/10/22 13:53:48;;;;;;;3.45;1.08;;;;;;;;;;5036963;28;20029;-71
2022/10/22 13:56:15;;;;;;;4.40;1.00;;;;;;;;;;5032130;28;20025;-69
2022/10/22 13:58:42;;;;;;;6.28;1.20;;;;;;;;;;5031212;28;21021;-71
2022/10/22 14:01:24;;;;;;;3.22;0.80;;;;;;;;;;5034035;28;20492;-71
2022/10/22 14:03:52;;;;;;;3.45;1.00;;;;;;;;;;5037801;28;20130;-71
2022/10/22 14:06:19;;;;;;;7.05;1.05;;;;;;;;;;5038184;28;20033;-71
2022/10/22 14:08:49;;;;;;;7.18;1.10;;;;;;;;;;5036230;28;21267;-70
2022/10/22 14:11:15;;;;;;;5.15;0.82;;;;;;;;;;5035395;28;20045;-70
2022/10/22 14:13:41;;;;;;;4.18;1.10;;;;;;;;;;5034296;28;20114;-71
2022/10/22 14:16:12;;;;;;;5.47;1.02;;;;;;;;;;5037510;28;20108;-71
2022/10/22 14:18:38;;;;;;;5.27;1.20;;;;;;;;;;5036956;28;20033;-71
2022/10/22 14:21:06;;;;;;;3.97;1.20;;;;;;;;;;5038974;28;20527;-70
2022/10/22 14:23:32;;;;;;;3.42;0.90;;;;;;;;;;5035466;28;20392;-70
2022/10/22 14:25:59;;;;;;;4.47;0.80;;;;;;;;;;5029585;28;20120;-70
2022/10/22 14:28:24;;;;;;;2.47;0.80;;;;;;;;;;5035648;28;20036;-70
2022/10/22 14:30:51;;;;;;;6.75;1.00;;;;;;;;;;5033439;28;20028;-71
2022/10/22 14:33:29;;;;;;;8.32;1.55;;;;;;;;;;5030585;28;20393;-70
2022/10/22 14:35:54;;;;;;;3.95;0.90;;;;;;;;;;5038516;28;20076;-70
2022/10/22 14:38:20;;;;;;;4.60;0.98;;;;;;;;;;5034382;28;20570;-72
2022/10/22 14:40:46;;;;;;;4.00;1.10;;;;;;;;;;5038882;28;20128;-72
2022/10/22 14:43:15;;;;;;;6.80;1.25;;;;;;;;;;5038239;28;20041;-71
2022/10/22 14:45:41;;;;;;;4.32;1.10;;;;;;;;;;5043233;28;20036;-71
2022/10/22 14:48:07;;;;;;;5.70;1.13;;;;;;;;;;5033794;28;20037;-71
2022/10/22 14:50:32;;;;;;;9.50;1.42;;;;;;;;;;5038025;28;21233;-71
2022/10/22 14:52:58;;;;;;;5.00;1.20;;;;;;;;;;5031813;28;20135;-71
2022/10/22 14:55:25;;;;;;;7.50;1.52;;;;;;;;;;5040428;28;20432;-73
2022/10/22 14:57:52;;;;;;;5.47;1.10;;;;;;;;;;5039298;28;20029;-71
2022/10/22 15:00:20;;;;;;;6.10;0.93;;;;;;;;;;5039450;28;20051;-70
2022/10/22 15:02:46;;;;;;;6.25;0.93;;;;;;;;;;5038510;28;20606;-70